Time;durP1;ratioP1;P1;durP2;ratioP2;P2;SDS_P1;SDS_P2;PMS_P1;PMS_P2;Temp;Humidity;BMP_temperature;BMP_pressure;BME280_temperature;BME280_humidity;BME280_pressure;Samples;Min_cycle;Max_cycle;Signal;HPM_P1;HPM_P2
2022/08/25 00:01:36;;;;;;;1.77;0.77;;;21.00;99.90;;;;;;5031225;28;20695;-83
2022/08/25 00:04:06;;;;;;;1.42;0.60;;;20.90;99.90;;;;;;5029960;28;20031;-83
2022/08/25 00:06:32;;;;;;;2.25;0.70;;;20.90;99.90;;;;;;5030774;28;20025;-83
2022/08/25 00:08:58;;;;;;;0.95;0.52;;;20.90;99.90;;;;;;5029409;28;20018;-83
2022/08/25 00:11:26;;;;;;;1.17;0.60;;;20.80;99.90;;;;;;5029916;28;20113;-84
2022/08/25 00:13:54;;;;;;;1.98;0.90;;;20.80;99.90;;;;;;5030572;28;20031;-83
2022/08/25 00:16:21;;;;;;;1.63;0.60;;;20.80;99.90;;;;;;5028645;28;20573;-83
2022/08/25 00:18:52;;;;;;;1.40;0.60;;;20.80;99.90;;;;;;5030704;28;20489;-83
2022/08/25 00:21:18;;;;;;;1.73;0.73;;;20.70;99.90;;;;;;5030934;28;20022;-83
2022/08/25 00:23:44;;;;;;;1.92;0.65;;;20.80;99.90;;;;;;5029583;28;20029;-83
2022/08/25 00:26:10;;;;;;;1.73;0.82;;;20.80;99.90;;;;;;5032662;28;20025;-83
2022/08/25 00:28:36;;;;;;;0.82;0.40;;;20.70;99.90;;;;;;5026098;28;20032;-83
2022/08/25 00:31:03;;;;;;;2.03;0.77;;;20.70;99.90;;;;;;5035264;28;20100;-83
2022/08/25 00:33:32;;;;;;;1.65;0.70;;;20.70;99.90;;;;;;5031041;28;20037;-83
2022/08/25 00:35:58;;;;;;;1.65;0.82;;;20.60;99.90;;;;;;5034847;28;20025;-82
2022/08/25 00:38:25;;;;;;;1.73;0.60;;;20.60;99.90;;;;;;5034999;28;20021;-83
2022/08/25 00:41:04;;;;;;;1.92;0.60;;;20.60;99.90;;;;;;5033630;28;20079;-84
2022/08/25 00:43:53;;;;;;;2.22;0.73;;;20.60;99.90;;;;;;5029142;28;20034;-83
2022/08/25 00:46:35;;;;;;;2.40;1.00;;;20.60;99.90;;;;;;5028966;28;20056;-83
2022/08/25 00:49:04;;;;;;;;;;;20.50;99.90;;;;;;5031262;28;20410;-82
2022/08/25 00:51:43;;;;;;;1.88;0.68;;;20.50;99.90;;;;;;5028088;28;19909;-83
2022/08/25 00:54:13;;;;;;;1.55;0.73;;;20.50;99.90;;;;;;5034987;28;20486;-84
2022/08/25 00:56:39;;;;;;;1.73;0.75;;;20.40;99.90;;;;;;5032914;28;20482;-83
2022/08/25 00:59:05;;;;;;;2.90;1.00;;;20.40;99.90;;;;;;5033280;28;20029;-84
2022/08/25 01:01:31;;;;;;;1.83;0.73;;;20.40;99.90;;;;;;5050058;28;20013;-83
2022/08/25 01:03:56;;;;;;;1.85;0.75;;;20.40;99.90;;;;;;5034524;28;20029;-83
2022/08/25 01:06:22;;;;;;;2.53;0.90;;;20.40;99.90;;;;;;5021459;28;20485;-83
2022/08/25 01:08:49;;;;;;;2.20;0.80;;;20.30;99.90;;;;;;5027187;28;20120;-83
2022/08/25 01:11:15;;;;;;;1.95;0.90;;;20.30;99.90;;;;;;5034369;28;20045;-83
2022/08/25 01:13:46;;;;;;;2.08;1.00;;;20.30;99.90;;;;;;5033044;28;20022;-83
2022/08/25 01:16:13;;;;;;;2.67;0.90;;;20.30;99.90;;;;;;5034157;28;20667;-83
2022/08/25 01:18:59;;;;;;;2.50;0.90;;;20.20;99.90;;;;;;5031152;28;20445;-83
2022/08/25 01:21:27;;;;;;;1.48;0.55;;;20.20;99.90;;;;;;5036420;28;20022;-83
2022/08/25 01:23:57;;;;;;;2.80;1.08;;;20.10;99.90;;;;;;5035802;28;20379;-83
2022/08/25 01:26:26;;;;;;;4.00;1.08;;;20.10;99.90;;;;;;5030029;28;20034;-84
2022/08/25 01:31:37;;;;;;;1.88;0.80;;;20.00;99.90;;;;;;5029658;28;20114;-83
2022/08/25 01:34:05;;;;;;;2.58;1.08;;;20.00;99.90;;;;;;5034475;28;20377;-82
2022/08/25 01:36:32;;;;;;;1.75;0.80;;;19.90;99.90;;;;;;5030332;28;20045;-83
2022/08/25 01:38:58;;;;;;;2.42;1.10;;;20.00;99.90;;;;;;5034252;28;20018;-83
2022/08/25 01:41:44;;;;;;;2.38;1.23;;;19.90;99.90;;;;;;5034128;28;20030;-82
2022/08/25 01:44:10;;;;;;;2.05;0.77;;;19.90;99.90;;;;;;5023060;28;20496;-84
2022/08/25 01:46:36;;;;;;;2.30;0.80;;;19.90;99.90;;;;;;5033603;28;20039;-83
2022/08/25 01:49:03;;;;;;;2.22;0.82;;;19.90;99.90;;;;;;5027442;28;20029;-83
2022/08/25 01:51:34;;;;;;;2.50;1.02;;;19.90;99.90;;;;;;5029794;28;20109;-84
2022/08/25 01:53:59;;;;;;;2.17;0.93;;;19.90;99.90;;;;;;5033988;28;20044;-83
2022/08/25 01:56:25;;;;;;;1.65;0.73;;;19.90;99.90;;;;;;5029392;28;20735;-84
2022/08/25 01:58:51;;;;;;;3.88;1.42;;;19.90;99.90;;;;;;5032493;28;20018;-82
2022/08/25 02:01:20;;;;;;;2.53;1.15;;;19.90;99.90;;;;;;5033738;28;20497;-83
2022/08/25 02:03:48;;;;;;;2.47;1.08;;;19.90;99.90;;;;;;5031938;28;20017;-83
2022/08/25 02:06:19;;;;;;;2.58;1.10;;;19.80;99.90;;;;;;5032944;28;20025;-83
2022/08/25 02:08:45;;;;;;;1.95;0.88;;;19.80;99.90;;;;;;5033240;28;20037;-83
2022/08/25 02:11:13;;;;;;;2.83;1.00;;;19.80;99.90;;;;;;5034144;28;20028;-82
2022/08/25 02:13:40;;;;;;;2.60;1.02;;;19.80;99.90;;;;;;5031706;28;20060;-82
2022/08/25 02:16:09;;;;;;;2.22;0.90;;;19.80;99.90;;;;;;5033911;28;20036;-83
2022/08/25 02:18:35;;;;;;;2.10;0.90;;;19.80;99.90;;;;;;5031572;28;20024;-83
2022/08/25 02:21:01;;;;;;;1.98;0.85;;;19.80;99.90;;;;;;5033368;28;20390;-83
2022/08/25 02:23:27;;;;;;;4.22;1.30;;;19.70;99.90;;;;;;5026542;28;20029;-83
2022/08/25 02:25:52;;;;;;;2.95;0.98;;;19.70;99.90;;;;;;5033598;28;20375;-83
2022/08/25 02:28:18;;;;;;;2.78;1.05;;;19.70;99.90;;;;;;5033371;28;20017;-83
2022/08/25 02:30:44;;;;;;;2.45;0.93;;;19.80;99.90;;;;;;5032817;28;20048;-83
2022/08/25 02:33:10;;;;;;;2.83;1.20;;;19.70;99.90;;;;;;5032974;28;20474;-83
2022/08/25 02:35:36;;;;;;;3.83;1.30;;;19.70;99.90;;;;;;5033060;28;20018;-83
2022/08/25 02:38:02;;;;;;;3.20;1.30;;;19.70;99.90;;;;;;5031716;28;20034;-84
2022/08/25 02:40:27;;;;;;;2.30;1.00;;;19.70;99.90;;;;;;5032861;28;20436;-83
2022/08/25 02:42:54;;;;;;;2.92;1.23;;;19.60;99.90;;;;;;5032358;28;20475;-82
2022/08/25 02:45:20;;;;;;;3.28;1.27;;;19.60;99.90;;;;;;5033664;28;20022;-83
2022/08/25 02:47:46;;;;;;;2.72;1.20;;;19.60;99.90;;;;;;5033177;28;20017;-83
2022/08/25 02:50:11;;;;;;;2.35;1.10;;;19.50;99.90;;;;;;5032111;28;20087;-83
2022/08/25 02:52:37;;;;;;;2.38;1.35;;;19.50;99.90;;;;;;5028512;28;20061;-83
2022/08/25 02:55:07;;;;;;;2.03;0.93;;;19.50;99.90;;;;;;5048206;28;20025;-83
2022/08/25 02:57:33;;;;;;;2.58;1.05;;;19.50;99.90;;;;;;5034211;28;20025;-84
2022/08/25 02:59:58;;;;;;;3.35;1.42;;;19.50;99.90;;;;;;5034463;28;20017;-83
2022/08/25 03:02:25;;;;;;;3.33;1.60;;;19.50;99.90;;;;;;5029310;28;20059;-84
2022/08/25 03:04:52;;;;;;;3.35;1.50;;;19.50;99.90;;;;;;5056324;22;20524;-83
2022/08/25 03:07:19;;;;;;;3.17;1.35;;;19.40;99.90;;;;;;5070781;28;20552;-83
2022/08/25 03:09:45;;;;;;;2.97;1.20;;;19.40;99.90;;;;;;5057901;28;20035;-83
2022/08/25 03:12:11;;;;;;;2.38;1.10;;;19.40;99.90;;;;;;5070567;28;20029;-84
2022/08/25 03:14:38;;;;;;;2.20;0.93;;;19.40;99.90;;;;;;5086776;28;20031;-83
2022/08/25 03:17:04;;;;;;;2.35;1.02;;;19.40;99.90;;;;;;5071275;28;20090;-83
2022/08/25 03:19:30;;;;;;;2.30;1.10;;;19.40;99.90;;;;;;5084721;22;20049;-83
2022/08/25 03:21:56;;;;;;;2.83;1.10;;;19.40;99.90;;;;;;5069826;28;20016;-83
2022/08/25 03:24:22;;;;;;;2.60;1.02;;;19.40;99.90;;;;;;5073793;28;20021;-83
2022/08/25 03:26:54;;;;;;;3.28;1.10;;;19.40;99.90;;;;;;5073646;28;20028;-82
2022/08/25 03:29:25;;;;;;;1.92;0.75;;;19.30;99.90;;;;;;5059368;28;20024;-82
2022/08/25 03:31:53;;;;;;;3.55;1.20;;;19.30;99.90;;;;;;5052333;28;20047;-82
2022/08/25 03:34:20;;;;;;;2.53;1.25;;;19.30;99.90;;;;;;5074020;28;20063;-83
2022/08/25 03:36:50;;;;;;;2.30;1.02;;;19.20;99.90;;;;;;5073126;28;20467;-82
2022/08/25 03:39:18;;;;;;;2.80;1.15;;;19.20;99.90;;;;;;5056003;28;20039;-83
2022/08/25 03:41:45;;;;;;;2.90;1.17;;;19.20;99.90;;;;;;5064115;28;20132;-84
2022/08/25 03:44:12;;;;;;;4.18;1.27;;;19.20;99.90;;;;;;5073064;28;20067;-83
2022/08/25 03:46:44;;;;;;;2.55;1.02;;;19.10;99.90;;;;;;5071317;28;20036;-83
2022/08/25 03:49:21;;;;;;;3.50;1.60;;;19.10;99.90;;;;;;5090616;28;20055;-83
2022/08/25 03:51:50;;;;;;;3.28;1.27;;;19.10;99.90;;;;;;5071787;28;20028;-83
2022/08/25 03:54:19;;;;;;;4.65;1.40;;;19.10;99.90;;;;;;5061899;28;20078;-83
2022/08/25 03:56:45;;;;;;;3.90;1.38;;;19.10;99.90;;;;;;5070287;28;20043;-84
2022/08/25 03:59:11;;;;;;;2.75;1.10;;;19.10;99.90;;;;;;5071243;28;20388;-84
2022/08/25 04:01:39;;;;;;;3.38;1.23;;;19.10;99.90;;;;;;5072001;28;20024;-83
2022/08/25 04:04:06;;;;;;;4.32;1.48;;;19.10;99.90;;;;;;5071283;28;20020;-84
2022/08/25 04:06:32;;;;;;;4.25;1.58;;;19.10;99.90;;;;;;5058709;28;20029;-83
2022/08/25 04:08:58;;;;;;;5.18;1.52;;;19.10;99.90;;;;;;5056865;28;20021;-83
2022/08/25 04:11:26;;;;;;;3.15;1.50;;;19.10;99.90;;;;;;5072242;28;20628;-84
2022/08/25 04:13:55;;;;;;;4.03;1.70;;;19.10;99.90;;;;;;5070659;28;20028;-83
2022/08/25 04:16:23;;;;;;;2.92;1.15;;;19.10;99.90;;;;;;5072722;28;20025;-84
2022/08/25 04:18:50;;;;;;;3.40;1.42;;;19.10;99.90;;;;;;5073393;28;20044;-84
2022/08/25 04:21:18;;;;;;;3.53;1.48;;;19.10;99.90;;;;;;5077089;28;20530;-83
2022/08/25 04:23:47;;;;;;;3.28;1.48;;;19.10;99.90;;;;;;5077243;28;20162;-84
2022/08/25 04:26:26;;;;;;;3.67;1.50;;;19.10;99.90;;;;;;5078199;28;20004;-83
2022/08/25 04:28:52;;;;;;;3.95;1.55;;;19.10;99.90;;;;;;5061344;28;20021;-84
2022/08/25 04:31:20;;;;;;;3.35;1.40;;;19.10;99.90;;;;;;5054352;28;20490;-84
2022/08/25 04:33:46;;;;;;;4.95;1.75;;;19.10;99.90;;;;;;5074654;28;20017;-84
2022/08/25 04:36:13;;;;;;;3.47;1.48;;;19.10;99.90;;;;;;5074137;28;20027;-85
2022/08/25 04:38:43;;;;;;;2.67;1.40;;;19.10;99.90;;;;;;5074402;28;20024;-85
2022/08/25 04:41:11;;;;;;;3.47;1.58;;;19.10;99.90;;;;;;5070227;28;20103;-84
2022/08/25 04:43:38;;;;;;;2.08;1.10;;;19.10;99.90;;;;;;5074592;28;20111;-84
2022/08/25 04:46:11;;;;;;;3.78;1.48;;;19.00;99.90;;;;;;5066554;28;20154;-84
2022/08/25 04:48:38;;;;;;;3.70;1.42;;;19.00;99.90;;;;;;5073536;28;20031;-83
2022/08/25 04:51:11;;;;;;;4.53;1.50;;;19.00;99.90;;;;;;5065817;28;20017;-84
2022/08/25 04:53:38;;;;;;;3.25;1.50;;;19.00;99.90;;;;;;5058087;28;20025;-84
2022/08/25 04:56:10;;;;;;;5.18;2.25;;;19.00;99.90;;;;;;5073065;28;20099;-83
2022/08/25 04:58:36;;;;;;;4.25;1.30;;;19.10;99.90;;;;;;5089926;28;20052;-85
2022/08/25 05:01:07;;;;;;;3.70;1.40;;;19.10;99.90;;;;;;5074244;28;20047;-84
2022/08/25 05:03:34;;;;;;;3.55;1.58;;;19.10;99.90;;;;;;5074298;28;20272;-85
2022/08/25 05:06:00;;;;;;;3.70;1.58;;;19.10;99.90;;;;;;5056412;28;20017;-84
2022/08/25 05:08:26;;;;;;;3.90;1.80;;;19.10;99.90;;;;;;5072717;28;20038;-84
2022/08/25 05:10:53;;;;;;;4.38;1.88;;;19.20;99.90;;;;;;5068936;28;20025;-85
2022/08/25 05:13:20;;;;;;;2.83;1.58;;;19.30;99.90;;;;;;5076866;28;20016;-84
2022/08/25 05:15:56;;;;;;;3.67;1.63;;;19.30;99.90;;;;;;5075853;28;20461;-84
2022/08/25 05:18:24;;;;;;;3.13;1.42;;;19.40;99.90;;;;;;5065279;28;20027;-85
2022/08/25 05:20:52;;;;;;;3.85;1.85;;;19.40;99.90;;;;;;5068951;28;20024;-83
2022/08/25 05:23:19;;;;;;;3.10;1.38;;;19.50;99.90;;;;;;5062420;28;20438;-83
2022/08/25 05:25:44;;;;;;;3.63;1.52;;;19.60;99.90;;;;;;5077357;28;20016;-84
2022/08/25 05:28:10;;;;;;;3.67;1.50;;;19.70;99.90;;;;;;5076488;28;20495;-85
2022/08/25 05:30:38;;;;;;;3.00;1.42;;;19.70;99.90;;;;;;5077411;28;20052;-84
2022/08/25 05:33:04;;;;;;;4.93;1.80;;;19.80;99.90;;;;;;5077097;28;20051;-84
2022/08/25 05:35:29;;;;;;;4.40;1.35;;;19.80;99.90;;;;;;5054197;28;20075;-85
2022/08/25 05:37:56;;;;;;;3.35;1.42;;;19.90;99.90;;;;;;5076975;28;20395;-84
2022/08/25 05:40:23;;;;;;;3.47;1.60;;;20.00;99.90;;;;;;5077091;28;20024;-84
2022/08/25 05:42:49;;;;;;;3.95;1.90;;;20.10;99.90;;;;;;5076461;28;20072;-84
2022/08/25 05:45:14;;;;;;;3.53;1.67;;;20.10;99.90;;;;;;5075422;28;20425;-86
2022/08/25 05:47:40;;;;;;;4.50;1.58;;;20.20;99.90;;;;;;5076082;28;20063;-84
2022/08/25 05:50:07;;;;;;;4.88;1.65;;;20.30;99.90;;;;;;5063049;28;20107;-85
2022/08/25 05:52:33;;;;;;;3.65;1.63;;;20.30;99.90;;;;;;5061734;28;20033;-84
2022/08/25 05:54:59;;;;;;;3.63;1.58;;;20.40;99.90;;;;;;5076074;28;20020;-84
2022/08/25 05:57:24;;;;;;;4.03;1.58;;;20.40;99.90;;;;;;5061569;28;20032;-84
2022/08/25 05:59:50;;;;;;;4.40;1.95;;;20.50;99.90;;;;;;5076067;28;20138;-84
2022/08/25 06:05:01;;;;;;;3.10;1.58;;;20.60;99.90;;;;;;5073934;28;20257;-85
2022/08/25 06:07:27;;;;;;;4.43;1.80;;;20.70;99.90;;;;;;5075786;28;20020;-84
2022/08/25 06:09:53;;;;;;;4.00;1.63;;;20.70;99.90;;;;;;5059717;28;20035;-84
2022/08/25 06:12:20;;;;;;;4.55;1.77;;;20.80;99.90;;;;;;5065888;28;20102;-84
2022/08/25 06:14:47;;;;;;;4.47;1.70;;;20.90;99.90;;;;;;5071426;28;20024;-84
2022/08/25 06:17:12;;;;;;;3.22;1.60;;;20.90;99.90;;;;;;5074130;28;20170;-84
2022/08/25 06:19:38;;;;;;;4.63;2.38;;;21.00;99.90;;;;;;5074847;28;20103;-84
2022/08/25 06:22:04;;;;;;;5.97;2.08;;;21.10;99.90;;;;;;5059187;28;20013;-84
2022/08/25 06:24:29;;;;;;;4.78;1.85;;;21.10;99.90;;;;;;5065930;28;20147;-84
2022/08/25 06:26:56;;;;;;;5.13;1.55;;;21.20;99.90;;;;;;5095490;28;20709;-85
2022/08/25 06:29:22;;;;;;;4.38;1.92;;;21.30;99.90;;;;;;5067245;28;20025;-84
2022/08/25 06:31:48;;;;;;;4.75;2.00;;;21.30;99.90;;;;;;5063996;28;20098;-84
2022/08/25 06:34:15;;;;;;;4.88;2.00;;;21.40;99.90;;;;;;5074340;28;20040;-84
2022/08/25 06:36:41;;;;;;;5.57;2.10;;;21.30;99.90;;;;;;5056331;28;20388;-84
2022/08/25 06:39:07;;;;;;;4.55;2.17;;;21.30;99.90;;;;;;5063764;28;20013;-84
2022/08/25 06:41:33;;;;;;;3.83;1.77;;;21.40;99.90;;;;;;5073927;28;20032;-84
2022/08/25 06:43:59;;;;;;;5.95;2.78;;;21.40;99.90;;;;;;5067397;28;20439;-84
2022/08/25 06:46:26;;;;;;;4.28;2.00;;;21.50;99.90;;;;;;5072978;28;20044;-84
2022/08/25 06:48:53;;;;;;;4.75;2.00;;;21.60;99.90;;;;;;5072031;28;20572;-84
2022/08/25 06:51:20;;;;;;;6.43;2.17;;;21.80;99.90;;;;;;5061061;28;20029;-84
2022/08/25 06:53:47;;;;;;;5.53;2.35;;;21.80;99.90;;;;;;5067525;28;20017;-84
2022/08/25 06:56:14;;;;;;;4.25;2.17;;;21.80;99.90;;;;;;5071971;28;20500;-84
2022/08/25 06:58:41;;;;;;;4.43;1.92;;;22.00;99.90;;;;;;5096979;28;20032;-84
2022/08/25 07:01:21;;;;;;;4.55;2.13;;;22.10;99.90;;;;;;5058403;28;20020;-85
2022/08/25 07:03:47;;;;;;;3.70;1.83;;;22.20;99.90;;;;;;5072642;28;20013;-84
2022/08/25 07:06:14;;;;;;;4.22;2.35;;;22.20;99.90;;;;;;5073280;28;20024;-84
2022/08/25 07:08:39;;;;;;;4.30;2.10;;;22.20;99.90;;;;;;5071914;28;20034;-84
2022/08/25 07:11:09;;;;;;;3.70;1.85;;;22.40;99.90;;;;;;5062121;28;20027;-85
2022/08/25 07:13:37;;;;;;;3.90;2.00;;;22.40;99.90;;;;;;5071955;28;20043;-84
2022/08/25 07:16:04;;;;;;;4.47;2.20;;;22.50;99.90;;;;;;5062048;28;20025;-84
2022/08/25 07:18:30;;;;;;;3.78;1.67;;;22.50;99.90;;;;;;5063055;28;20021;-84
2022/08/25 07:20:57;;;;;;;3.22;1.77;;;22.60;99.90;;;;;;5055554;28;20372;-84
2022/08/25 07:23:23;;;;;;;3.38;1.60;;;22.70;99.90;;;;;;5058090;28;20017;-84
2022/08/25 07:25:48;;;;;;;4.82;1.90;;;22.70;99.90;;;;;;5072035;28;20067;-84
2022/08/25 07:28:16;;;;;;;4.15;1.90;;;22.80;99.90;;;;;;5071879;28;20389;-84
2022/08/25 07:30:42;;;;;;;3.47;1.80;;;22.90;99.90;;;;;;5071889;28;20032;-84
2022/08/25 07:33:08;;;;;;;4.38;1.98;;;23.00;99.90;;;;;;5071440;28;20059;-84
2022/08/25 07:35:35;;;;;;;5.10;1.88;;;22.90;99.90;;;;;;5071632;28;20052;-85
2022/08/25 07:38:02;;;;;;;4.07;1.98;;;23.10;99.90;;;;;;5061487;28;20024;-85
2022/08/25 07:40:30;;;;;;;4.47;2.30;;;23.20;99.90;;;;;;5072282;28;20016;-85
2022/08/25 07:43:00;;;;;;;4.20;1.90;;;23.20;99.90;;;;;;5069039;28;20400;-84
2022/08/25 07:45:29;;;;;;;3.80;1.77;;;23.20;99.90;;;;;;5062642;28;20067;-85
2022/08/25 07:48:00;;;;;;;3.65;1.92;;;23.30;99.90;;;;;;5069058;28;20016;-84
2022/08/25 07:50:28;;;;;;;3.53;1.52;;;23.30;99.90;;;;;;5061105;28;20147;-85
2022/08/25 07:52:55;;;;;;;3.47;1.50;;;23.50;99.90;;;;;;5059282;28;20111;-85
2022/08/25 07:55:23;;;;;;;4.00;1.92;;;23.40;99.90;;;;;;5062324;28;20077;-85
2022/08/25 07:57:49;;;;;;;3.70;1.90;;;23.40;99.90;;;;;;5071173;28;20021;-85
2022/08/25 08:00:15;;;;;;;3.67;1.63;;;23.60;99.90;;;;;;5069389;28;20074;-85
2022/08/25 08:02:42;;;;;;;4.72;1.95;;;23.70;99.90;;;;;;5058148;28;20096;-84
2022/08/25 08:05:10;;;;;;;4.18;2.03;;;23.70;99.90;;;;;;5055624;28;20019;-85
2022/08/25 08:07:36;;;;;;;4.13;1.73;;;23.90;99.90;;;;;;5057685;28;20024;-85
2022/08/25 08:10:03;;;;;;;5.38;2.05;;;24.00;99.90;;;;;;5071152;28;20043;-85
2022/08/25 08:12:29;;;;;;;3.80;2.03;;;23.90;99.90;;;;;;5070592;28;20048;-85
2022/08/25 08:14:55;;;;;;;4.47;1.67;;;24.10;99.90;;;;;;5053738;28;20093;-85
2022/08/25 08:17:20;;;;;;;3.58;1.50;;;24.30;99.90;;;;;;5057079;28;20020;-86
2022/08/25 08:19:46;;;;;;;4.60;1.80;;;24.30;99.90;;;;;;5063380;28;20428;-85
2022/08/25 08:22:16;;;;;;;3.03;1.60;;;24.40;99.90;;;;;;5053234;28;20021;-85
2022/08/25 08:24:43;;;;;;;3.63;1.63;;;24.50;99.90;;;;;;5058579;28;20020;-86
2022/08/25 08:27:11;;;;;;;3.80;1.30;;;24.70;99.90;;;;;;5086575;28;20089;-85
2022/08/25 08:29:38;;;;;;;3.33;1.50;;;24.80;99.90;;;;;;5063720;28;20647;-84
2022/08/25 08:32:06;;;;;;;3.88;1.58;;;24.70;99.90;;;;;;5070342;28;20040;-85
2022/08/25 08:34:32;;;;;;;5.22;1.85;;;24.90;99.90;;;;;;5062947;28;20036;-85
2022/08/25 08:36:58;;;;;;;4.53;2.10;;;25.00;99.90;;;;;;5085686;28;20031;-85
2022/08/25 08:39:25;;;;;;;3.20;1.52;;;24.90;99.90;;;;;;5071411;28;20032;-85
2022/08/25 08:42:18;;;;;;;3.85;1.88;;;25.00;99.90;;;;;;5057580;28;20039;-85
2022/08/25 08:44:43;;;;;;;3.05;1.50;;;25.10;99.90;;;;;;5055638;28;20032;-86
2022/08/25 08:47:38;;;;;;;3.67;1.83;;;25.30;99.90;;;;;;5059171;28;20012;-85
2022/08/25 08:50:29;;;;;;;4.25;1.65;;;25.60;99.90;;;;;;5053913;28;20384;-85
2022/08/25 08:53:33;;;;;;;3.40;1.50;;;25.50;99.90;;;;;;5059131;28;20021;-85
2022/08/25 08:56:07;;;;;;;3.00;1.35;;;25.50;99.90;;;;;;4972703;28;20595;-85
2022/08/25 08:58:47;;;;;;;4.35;1.67;;;25.50;99.90;;;;;;5050116;28;20079;-85
2022/08/25 09:01:41;;;;;;;3.50;1.70;;;25.70;99.90;;;;;;5074120;28;20016;-85
2022/08/25 09:04:26;;;;;;;3.80;1.35;;;25.80;99.90;;;;;;5069891;28;20435;-85
2022/08/25 09:06:52;;;;;;;2.70;1.23;;;26.00;99.90;;;;;;5067021;28;20058;-85
2022/08/25 09:09:30;;;;;;;3.90;1.65;;;26.00;99.90;;;;;;5073983;28;20021;-86
2022/08/25 09:11:55;;;;;;;3.03;1.45;;;26.00;99.90;;;;;;5068646;28;20020;-85
2022/08/25 09:14:38;;;;;;;3.30;1.30;;;26.00;99.90;;;;;;5073402;28;20113;-85
2022/08/25 09:17:41;;;;;;;3.30;1.50;;;26.10;99.90;;;;;;5070636;28;20017;-85
2022/08/25 09:20:24;;;;;;;3.33;1.60;;;26.20;99.80;;;;;;5082887;22;20060;-83
2022/08/25 09:23:25;;;;;;;2.63;1.30;;;26.20;99.80;;;;;;5078414;28;20044;-84
2022/08/25 09:26:26;;;;;;;2.30;1.23;;;26.40;99.20;;;;;;5065498;28;20056;-84
2022/08/25 09:29:08;;;;;;;3.60;1.33;;;26.50;99.20;;;;;;5064492;28;20404;-84
2022/08/25 09:31:39;;;;;;;3.15;1.25;;;26.60;99.10;;;;;;5061939;28;20024;-84
2022/08/25 09:34:33;;;;;;;3.58;1.77;;;26.70;99.20;;;;;;5066180;28;20110;-84
2022/08/25 09:36:59;;;;;;;3.92;1.40;;;26.80;98.70;;;;;;5053635;28;20032;-84
2022/08/25 09:39:25;;;;;;;3.15;1.45;;;27.00;98.80;;;;;;5072151;28;20031;-84
2022/08/25 09:41:54;;;;;;;3.78;1.52;;;27.00;97.90;;;;;;5064961;28;20012;-84
2022/08/25 09:44:42;;;;;;;2.38;1.30;;;26.80;97.40;;;;;;5072892;28;20013;-84
2022/08/25 09:47:16;;;;;;;3.20;1.30;;;27.00;97.80;;;;;;5066408;28;20048;-84
2022/08/25 09:50:03;;;;;;;3.63;1.20;;;26.80;97.30;;;;;;5064489;28;20031;-84
2022/08/25 09:52:34;;;;;;;2.95;1.30;;;26.80;97.70;;;;;;5067272;28;20020;-83
2022/08/25 09:55:15;;;;;;;2.75;1.33;;;26.80;97.70;;;;;;5073317;28;20358;-84
2022/08/25 09:57:50;;;;;;;2.17;0.90;;;26.60;97.90;;;;;;5060076;28;20489;-84
2022/08/25 10:00:30;;;;;;;2.60;1.20;;;26.80;97.30;;;;;;5076731;28;20017;-84
2022/08/25 10:03:17;;;;;;;2.70;1.25;;;27.10;97.40;;;;;;5070199;28;20021;-84
2022/08/25 10:06:00;;;;;;;3.67;1.20;;;27.40;97.10;;;;;;5069204;28;20024;-84
2022/08/25 10:08:30;;;;;;;2.63;1.13;;;27.60;96.60;;;;;;5060452;28;20024;-84
2022/08/25 10:10:58;;;;;;;2.47;1.40;;;27.60;96.00;;;;;;5068065;28;20028;-84
2022/08/25 10:13:45;;;;;;;4.55;1.40;;;27.70;95.90;;;;;;5067666;28;20094;-84
2022/08/25 10:16:27;;;;;;;2.53;1.17;;;28.00;95.20;;;;;;5056441;28;20025;-85
2022/08/25 10:19:09;;;;;;;2.22;1.00;;;28.20;95.30;;;;;;5075366;28;20016;-85
2022/08/25 10:21:37;;;;;;;3.40;1.15;;;28.20;94.50;;;;;;5058129;28;20027;-84
2022/08/25 10:24:04;;;;;;;2.63;1.25;;;27.90;95.10;;;;;;5072898;28;20024;-84
2022/08/25 10:26:55;;;;;;;2.40;1.15;;;27.70;95.60;;;;;;5065832;28;20036;-85
2022/08/25 10:29:54;;;;;;;2.80;1.17;;;27.80;95.60;;;;;;5072414;28;20485;-85
2022/08/25 10:32:45;;;;;;;2.75;1.25;;;28.00;95.50;;;;;;5063900;28;20370;-84
2022/08/25 10:35:26;;;;;;;2.50;1.27;;;27.70;95.40;;;;;;5051374;28;20029;-84
2022/08/25 10:38:19;;;;;;;2.78;1.30;;;27.80;95.20;;;;;;5070535;28;20557;-84
2022/08/25 10:41:02;;;;;;;2.70;1.10;;;28.10;94.60;;;;;;5071965;28;20048;-84
2022/08/25 10:43:37;;;;;;;2.33;1.15;;;28.50;94.80;;;;;;5061382;28;20017;-84
2022/08/25 10:46:19;;;;;;;2.60;1.10;;;28.80;94.40;;;;;;5075155;28;20032;-84
2022/08/25 10:48:57;;;;;;;2.58;1.10;;;28.90;93.90;;;;;;5075010;28;20021;-84
2022/08/25 10:51:51;;;;;;;3.15;1.30;;;29.10;93.30;;;;;;5055978;28;20039;-84
2022/08/25 10:54:54;;;;;;;1.88;0.85;;;28.90;92.90;;;;;;5069306;28;20031;-84
2022/08/25 10:57:38;;;;;;;1.95;1.00;;;29.10;93.10;;;;;;5054262;28;20027;-84
2022/08/25 11:00:13;;;;;;;2.80;1.00;;;29.20;93.10;;;;;;5057805;28;20021;-84
2022/08/25 11:03:07;;;;;;;2.60;0.98;;;29.40;92.80;;;;;;5061987;28;20024;-84
2022/08/25 11:05:52;;;;;;;2.58;1.10;;;29.40;92.70;;;;;;5044959;28;20036;-84
2022/08/25 11:08:27;;;;;;;1.65;0.98;;;29.30;92.20;;;;;;5067357;28;20473;-84
2022/08/25 11:11:08;;;;;;;3.22;0.90;;;29.20;92.50;;;;;;5055977;28;20027;-84
2022/08/25 11:13:49;;;;;;;2.53;1.00;;;29.20;92.20;;;;;;5060058;28;20426;-84
2022/08/25 11:16:19;;;;;;;2.63;1.10;;;29.20;91.80;;;;;;5071137;28;20020;-84
2022/08/25 11:18:58;;;;;;;1.87;0.83;;;29.80;92.00;;;;;;5071439;28;20031;-84
2022/08/25 11:21:43;;;;;;;2.05;0.90;;;30.10;91.30;;;;;;5070972;28;20086;-84
2022/08/25 11:24:30;;;;;;;2.22;1.00;;;30.00;90.80;;;;;;5054578;28;20066;-84
2022/08/25 11:26:56;;;;;;;1.73;0.90;;;30.20;90.70;;;;;;5051780;28;20029;-85
2022/08/25 11:29:29;;;;;;;2.05;0.98;;;30.40;90.40;;;;;;5070759;28;20439;-84
2022/08/25 11:31:59;;;;;;;1.70;0.80;;;30.60;90.00;;;;;;5058342;28;20024;-84
2022/08/25 11:34:27;;;;;;;2.33;1.10;;;30.60;89.50;;;;;;5060591;28;20025;-84
2022/08/25 11:37:13;;;;;;;2.60;1.13;;;30.10;89.70;;;;;;5064907;28;20029;-84
2022/08/25 11:39:51;;;;;;;2.67;1.00;;;30.10;89.60;;;;;;5058984;28;20055;-84
2022/08/25 11:42:34;;;;;;;2.08;1.10;;;30.30;89.40;;;;;;5071353;28;20127;-84
2022/08/25 11:45:35;;;;;;;3.15;1.20;;;30.40;89.40;;;;;;5070871;28;20079;-84
2022/08/25 11:48:16;;;;;;;2.25;0.88;;;30.80;89.80;;;;;;5045702;28;20039;-84
2022/08/25 11:51:07;;;;;;;2.53;0.90;;;30.20;89.10;;;;;;5070022;28;20032;-84
2022/08/25 11:53:34;;;;;;;2.72;1.13;;;30.10;89.40;;;;;;5070911;28;20031;-84
2022/08/25 11:56:22;;;;;;;1.92;1.00;;;30.00;89.60;;;;;;5061712;28;20074;-84
2022/08/25 11:58:50;;;;;;;2.05;0.90;;;30.10;89.50;;;;;;5057748;28;20028;-84
2022/08/25 12:01:43;;;;;;;1.80;1.00;;;30.50;88.80;;;;;;5056473;28;20158;-84
2022/08/25 12:04:40;;;;;;;2.00;1.02;;;30.90;87.40;;;;;;5065515;28;20091;-84
2022/08/25 12:07:05;;;;;;;1.55;1.00;;;31.00;88.10;;;;;;5064704;28;20077;-84
2022/08/25 12:09:54;;;;;;;2.55;1.30;;;31.00;87.20;;;;;;5060347;28;20024;-84
2022/08/25 12:12:30;;;;;;;2.22;1.00;;;31.40;86.60;;;;;;5034729;28;20040;-84
2022/08/25 12:15:23;;;;;;;2.85;1.00;;;31.10;86.00;;;;;;5063424;28;20084;-83
2022/08/25 12:18:14;;;;;;;2.28;1.00;;;31.50;85.60;;;;;;5059911;28;20493;-84
2022/08/25 12:20:57;;;;;;;1.63;0.80;;;31.60;85.50;;;;;;5072518;28;20071;-83
2022/08/25 12:23:38;;;;;;;3.67;1.00;;;31.00;85.00;;;;;;5061602;28;20024;-83
2022/08/25 12:26:43;;;;;;;1.85;0.90;;;30.60;85.30;;;;;;5073713;28;20048;-84
2022/08/25 12:29:24;;;;;;;1.75;0.82;;;30.70;86.20;;;;;;5024482;28;20027;-83
2022/08/25 12:32:06;;;;;;;1.42;0.80;;;30.90;85.00;;;;;;5076170;28;20063;-83
2022/08/25 12:34:52;;;;;;;2.45;0.90;;;30.80;84.50;;;;;;5062693;28;20029;-84
2022/08/25 12:37:23;;;;;;;2.40;0.60;;;31.10;86.10;;;;;;5073634;28;20021;-84
2022/08/25 12:39:49;;;;;;;;;;;31.40;84.40;;;;;;5074650;28;20020;-84
2022/08/25 12:42:43;;;;;;;2.05;1.00;;;31.70;83.40;;;;;;5074528;28;19958;-84
2022/08/25 12:45:24;;;;;;;2.92;1.40;;;32.20;82.90;;;;;;5054769;28;20056;-84
2022/08/25 12:47:51;;;;;;;2.47;0.90;;;32.20;81.50;;;;;;5073670;28;20499;-84
2022/08/25 12:50:46;;;;;;;1.75;0.70;;;32.10;81.40;;;;;;5061328;28;20040;-84
2022/08/25 12:53:50;;;;;;;2.05;1.00;;;32.50;82.00;;;;;;5072486;28;20032;-84
2022/08/25 12:56:26;;;;;;;2.08;0.98;;;32.60;80.80;;;;;;5056140;28;20126;-84
2022/08/25 12:59:01;;;;;;;2.58;1.10;;;32.70;81.00;;;;;;5053123;28;20024;-84
2022/08/25 13:02:00;;;;;;;2.45;1.00;;;32.70;80.60;;;;;;5074305;28;20499;-84
2022/08/25 13:04:54;;;;;;;1.63;0.80;;;32.70;80.10;;;;;;5054824;28;20063;-84
2022/08/25 13:07:52;;;;;;;2.20;0.77;;;32.90;79.10;;;;;;5063176;28;20029;-83
2022/08/25 13:10:37;;;;;;;2.90;1.17;;;33.20;78.50;;;;;;5023418;28;20040;-84
2022/08/25 13:13:30;;;;;;;1.27;0.70;;;33.40;78.00;;;;;;5064937;28;20021;-85
2022/08/25 13:16:05;;;;;;;1.40;0.73;;;33.70;77.90;;;;;;5070784;28;20086;-84
2022/08/25 13:18:34;;;;;;;1.20;0.68;;;34.10;77.60;;;;;;5062739;28;20033;-84
2022/08/25 13:21:21;;;;;;;1.55;0.90;;;34.30;77.30;;;;;;5073671;28;20027;-84